Time;durP1;ratioP1;P1;durP2;ratioP2;P2;SDS_P1;SDS_P2;PMS_P1;PMS_P2;Temp;Humidity;BMP_temperature;BMP_pressure;BME280_temperature;BME280_humidity;BME280_pressure;Samples;Min_cycle;Max_cycle;Signal;HPM_P1;HPM_P2
2022/08/29 00:01:00;;;;;;;3.97;2.10;;;17.60;99.90;;;;;;5051844;28;20064;-61
2022/08/29 00:03:27;;;;;;;6.60;2.70;;;17.60;99.90;;;;;;5051731;28;20058;-62
2022/08/29 00:05:52;;;;;;;5.32;2.00;;;17.60;99.90;;;;;;5051941;28;20079;-62
2022/08/29 00:08:19;;;;;;;4.53;2.15;;;17.50;99.90;;;;;;5052322;28;20079;-61
2022/08/29 00:10:44;;;;;;;5.28;2.72;;;17.50;99.90;;;;;;5051696;28;20040;-61
2022/08/29 00:13:12;;;;;;;7.60;2.47;;;17.60;99.90;;;;;;5051866;28;20116;-62
2022/08/29 00:15:39;;;;;;;4.60;2.67;;;17.60;99.90;;;;;;5051597;28;20035;-61
2022/08/29 00:18:06;;;;;;;4.97;2.38;;;17.50;99.90;;;;;;5051819;28;20036;-61
2022/08/29 00:20:34;;;;;;;5.63;2.20;;;17.60;99.90;;;;;;5051314;28;20025;-62
2022/08/29 00:23:03;;;;;;;5.03;2.15;;;17.50;99.90;;;;;;5050723;28;20090;-61
2022/08/29 00:25:30;;;;;;;6.55;2.33;;;17.50;99.90;;;;;;5051578;28;20530;-62
2022/08/29 00:27:56;;;;;;;4.90;2.28;;;17.50;99.90;;;;;;5051832;28;20033;-61
2022/08/29 00:30:23;;;;;;;5.50;2.22;;;17.40;99.90;;;;;;5051503;28;20029;-61
2022/08/29 00:32:49;;;;;;;4.68;2.00;;;17.40;99.90;;;;;;5051449;28;20501;-61
2022/08/29 00:35:28;;;;;;;5.30;2.40;;;17.40;99.90;;;;;;5051312;28;20032;-62
2022/08/29 00:37:54;;;;;;;4.50;2.35;;;17.40;99.90;;;;;;5051693;28;20033;-61
2022/08/29 00:40:24;;;;;;;6.80;2.20;;;17.30;99.90;;;;;;5051424;28;20079;-62
2022/08/29 00:42:50;;;;;;;4.55;2.00;;;17.30;99.90;;;;;;5051267;28;20037;-62
2022/08/29 00:45:17;;;;;;;5.15;2.22;;;17.20;99.90;;;;;;5051329;28;20047;-61
2022/08/29 00:47:50;;;;;;;5.13;2.08;;;17.20;99.90;;;;;;5051055;28;20497;-62
2022/08/29 00:50:43;;;;;;;3.88;2.20;;;17.20;99.90;;;;;;5050977;28;20082;-61
2022/08/29 00:53:12;;;;;;;4.88;2.03;;;17.10;99.90;;;;;;5050986;28;20506;-62
2022/08/29 00:55:39;;;;;;;4.00;2.00;;;17.10;99.90;;;;;;5051077;28;20104;-61
2022/08/29 00:58:13;;;;;;;4.80;2.22;;;17.20;99.90;;;;;;5051378;28;20389;-61
2022/08/29 01:00:40;;;;;;;5.88;2.35;;;17.20;99.90;;;;;;5050634;28;20045;-61
2022/08/29 01:03:06;;;;;;;6.90;2.50;;;17.20;99.90;;;;;;5051201;28;20116;-61
2022/08/29 01:05:32;;;;;;;4.43;2.40;;;17.20;99.90;;;;;;5050979;28;20029;-62
2022/08/29 01:07:59;;;;;;;6.65;2.78;;;17.20;99.90;;;;;;5051220;28;20080;-60
2022/08/29 01:13:10;;;;;;;5.20;1.83;;;17.20;99.90;;;;;;5051426;28;20147;-61
2022/08/29 01:15:38;;;;;;;5.30;1.67;;;17.10;99.90;;;;;;5051105;28;20112;-61
2022/08/29 01:18:06;;;;;;;4.97;2.08;;;17.10;99.90;;;;;;5051167;28;20037;-61
2022/08/29 01:20:50;;;;;;;4.65;2.10;;;17.10;99.90;;;;;;5050691;28;20418;-60
2022/08/29 01:23:30;;;;;;;5.93;2.17;;;17.00;99.90;;;;;;5050796;28;20103;-60
2022/08/29 01:25:57;;;;;;;3.05;1.95;;;17.00;99.90;;;;;;5050872;28;20503;-62
2022/08/29 01:28:30;;;;;;;3.97;1.92;;;17.00;99.90;;;;;;5051017;28;20025;-66
2022/08/29 01:31:00;;;;;;;3.53;1.70;;;17.00;99.90;;;;;;5051198;28;20089;-61
2022/08/29 01:33:46;;;;;;;12.18;3.00;;;17.00;99.90;;;;;;5049549;28;20635;-61
2022/08/29 01:36:16;;;;;;;3.58;2.15;;;17.10;99.90;;;;;;5050820;28;20500;-61
2022/08/29 01:38:42;;;;;;;4.82;2.10;;;17.00;99.90;;;;;;5051539;28;20032;-61
2022/08/29 01:41:09;;;;;;;5.47;2.10;;;16.90;99.90;;;;;;5050818;28;20046;-61
2022/08/29 01:43:41;;;;;;;9.23;2.50;;;16.90;99.90;;;;;;5050807;28;20420;-62
2022/08/29 01:46:08;;;;;;;5.80;2.20;;;16.80;99.90;;;;;;5051204;28;20028;-61
2022/08/29 01:48:37;;;;;;;5.22;2.42;;;16.80;99.90;;;;;;5050843;28;20096;-61
2022/08/29 01:51:02;;;;;;;4.50;2.33;;;16.70;99.90;;;;;;5050732;28;20033;-61
2022/08/29 01:53:28;;;;;;;10.73;2.55;;;16.70;99.90;;;;;;5050785;28;20044;-61
2022/08/29 01:55:54;;;;;;;10.57;2.60;;;16.60;99.90;;;;;;5050567;28;20029;-61
2022/08/29 01:58:19;;;;;;;4.25;2.30;;;16.60;99.90;;;;;;5050757;28;20159;-61
2022/08/29 02:00:45;;;;;;;4.35;2.38;;;16.60;99.90;;;;;;5050386;28;20084;-61
2022/08/29 02:03:10;;;;;;;4.50;2.45;;;16.60;99.90;;;;;;5054191;28;20402;-61
2022/08/29 02:05:36;;;;;;;5.30;2.47;;;16.60;99.90;;;;;;5054356;28;20029;-61
2022/08/29 02:08:02;;;;;;;7.90;2.65;;;16.60;99.90;;;;;;5054306;28;20037;-61
2022/08/29 02:10:29;;;;;;;5.93;2.65;;;16.50;99.90;;;;;;5054322;28;20025;-61
2022/08/29 02:12:55;;;;;;;4.68;2.50;;;16.60;99.90;;;;;;5052754;28;20512;-61
2022/08/29 02:15:21;;;;;;;5.85;2.70;;;16.50;99.90;;;;;;5054163;28;20366;-60
2022/08/29 02:17:47;;;;;;;4.57;2.60;;;16.50;99.90;;;;;;5054088;28;20063;-61
2022/08/29 02:20:13;;;;;;;5.28;2.58;;;16.50;99.90;;;;;;5053959;28;20025;-61
2022/08/29 02:22:39;;;;;;;7.43;2.90;;;16.50;99.90;;;;;;5053760;28;20075;-65
2022/08/29 02:25:40;;;;;;;4.95;2.53;;;16.50;99.90;;;;;;5053937;28;20040;-61
2022/08/29 02:27:53;;;;;;;4.75;3.00;;;16.50;99.90;;;;;;5053904;28;20033;-61
2022/08/29 02:30:19;;;;;;;7.43;2.97;;;16.60;99.90;;;;;;5052672;28;20025;-61
2022/08/29 02:32:45;;;;;;;6.25;2.65;;;16.60;99.90;;;;;;5053619;28;20120;-61
2022/08/29 02:35:10;;;;;;;5.38;2.80;;;16.60;99.90;;;;;;5053797;28;20028;-61
2022/08/29 02:37:36;;;;;;;5.72;2.90;;;16.60;99.90;;;;;;5053560;28;20037;-61
2022/08/29 02:40:02;;;;;;;8.75;2.75;;;16.60;99.90;;;;;;5053762;28;20033;-61
2022/08/29 02:42:28;;;;;;;6.03;2.65;;;16.60;99.90;;;;;;5053663;28;20029;-63
2022/08/29 02:44:53;;;;;;;11.95;3.70;;;16.50;99.90;;;;;;5053076;28;20032;-60
2022/08/29 02:47:19;;;;;;;5.32;2.95;;;16.50;99.90;;;;;;5053077;28;20519;-61
2022/08/29 02:49:44;;;;;;;10.25;3.50;;;16.40;99.90;;;;;;5053667;28;20511;-60
2022/08/29 02:52:10;;;;;;;8.00;3.20;;;16.40;99.90;;;;;;5053324;28;20052;-61
2022/08/29 02:54:36;;;;;;;7.60;3.15;;;16.40;99.90;;;;;;5053209;28;20021;-61
2022/08/29 02:57:03;;;;;;;8.40;3.00;;;16.30;99.90;;;;;;5053258;28;20472;-61
2022/08/29 02:59:28;;;;;;;5.97;2.83;;;16.20;99.90;;;;;;5052150;28;20132;-61
2022/08/29 03:01:54;;;;;;;7.47;3.17;;;16.20;99.90;;;;;;5053236;28;20132;-61
2022/08/29 03:04:21;;;;;;;10.77;3.25;;;16.20;99.90;;;;;;5052846;28;20118;-61
2022/08/29 03:06:46;;;;;;;5.72;2.90;;;16.10;99.90;;;;;;5053351;28;20056;-61
2022/08/29 03:09:12;;;;;;;9.43;2.90;;;16.10;99.90;;;;;;5053057;28;20111;-61
2022/08/29 03:11:38;;;;;;;5.80;3.00;;;16.00;99.90;;;;;;5052529;28;20033;-61
2022/08/29 03:14:03;;;;;;;10.50;3.35;;;15.90;99.90;;;;;;5052612;28;20119;-61
2022/08/29 03:16:29;;;;;;;5.88;2.92;;;15.90;99.90;;;;;;5052653;28;20398;-61
2022/08/29 03:18:55;;;;;;;5.03;3.05;;;15.90;99.90;;;;;;5052912;28;20040;-61
2022/08/29 03:21:24;;;;;;;6.43;3.40;;;15.90;99.90;;;;;;5052833;28;20032;-60
2022/08/29 03:23:50;;;;;;;7.85;3.20;;;15.90;99.90;;;;;;5052575;28;20049;-61
2022/08/29 03:26:16;;;;;;;9.55;4.10;;;15.90;99.90;;;;;;5052852;28;20017;-60
2022/08/29 03:28:42;;;;;;;5.00;3.25;;;15.90;99.90;;;;;;5052986;28;20037;-60
2022/08/29 03:31:08;;;;;;;6.13;3.75;;;15.90;99.90;;;;;;5052503;28;20036;-60
2022/08/29 03:33:34;;;;;;;7.43;3.50;;;15.90;99.90;;;;;;5052472;28;20116;-60
2022/08/29 03:36:00;;;;;;;8.27;3.78;;;15.90;99.90;;;;;;5052580;28;20096;-63
2022/08/29 03:38:26;;;;;;;9.90;3.67;;;15.80;99.90;;;;;;5052794;28;20033;-62
2022/08/29 03:40:52;;;;;;;8.80;3.45;;;15.90;99.90;;;;;;5052573;28;20039;-61
2022/08/29 03:43:20;;;;;;;7.85;3.85;;;15.90;99.90;;;;;;5052595;28;20482;-60
2022/08/29 03:45:47;;;;;;;7.70;3.47;;;15.90;99.90;;;;;;5052330;28;20025;-60
2022/08/29 03:48:13;;;;;;;10.10;3.78;;;15.90;99.90;;;;;;5052758;28;20363;-61
2022/08/29 03:50:39;;;;;;;10.80;3.67;;;15.80;99.90;;;;;;5052095;28;20078;-61
2022/08/29 03:53:05;;;;;;;10.35;3.90;;;15.80;99.90;;;;;;5052611;28;20029;-60
2022/08/29 03:55:30;;;;;;;6.97;3.67;;;15.80;99.90;;;;;;5052061;28;20096;-60
2022/08/29 03:57:56;;;;;;;8.40;3.78;;;15.90;99.90;;;;;;5052180;28;20589;-60
2022/08/29 04:00:22;;;;;;;11.07;3.97;;;15.90;99.90;;;;;;5051978;28;20540;-60
2022/08/29 04:02:48;;;;;;;10.65;4.00;;;15.90;99.90;;;;;;5051646;28;20024;-60
2022/08/29 04:05:15;;;;;;;8.60;3.70;;;15.90;99.90;;;;;;5052010;28;20253;-61
2022/08/29 04:07:53;;;;;;;9.05;3.42;;;15.90;99.90;;;;;;5051752;28;20029;-61
2022/08/29 04:10:23;;;;;;;6.90;3.35;;;15.80;99.90;;;;;;5052022;28;20059;-60
2022/08/29 04:12:50;;;;;;;7.15;3.67;;;15.80;99.90;;;;;;5052072;28;20108;-61
2022/08/29 04:15:16;;;;;;;9.10;3.25;;;15.70;99.90;;;;;;5051968;28;20082;-60
2022/08/29 04:17:42;;;;;;;9.43;3.60;;;15.70;99.90;;;;;;5051686;28;20025;-60
2022/08/29 04:20:08;;;;;;;5.50;3.38;;;15.70;99.90;;;;;;5051975;28;20025;-60
2022/08/29 04:22:36;;;;;;;12.93;3.85;;;15.70;99.90;;;;;;5051772;28;20027;-61
2022/08/29 04:25:03;;;;;;;9.95;4.07;;;15.70;99.90;;;;;;5050819;28;20029;-61
2022/08/29 04:27:30;;;;;;;18.02;4.07;;;15.80;99.90;;;;;;5051779;28;20029;-59
2022/08/29 04:29:55;;;;;;;9.07;4.32;;;16.00;99.90;;;;;;5051980;28;20044;-61
2022/08/29 04:32:21;;;;;;;12.32;4.35;;;16.00;99.90;;;;;;5051196;28;20033;-60
2022/08/29 04:34:47;;;;;;;9.70;3.90;;;15.80;99.90;;;;;;5051956;28;20421;-60
2022/08/29 04:37:13;;;;;;;9.60;3.65;;;15.60;99.90;;;;;;5051187;28;20021;-60
2022/08/29 04:39:39;;;;;;;10.00;4.03;;;15.50;99.90;;;;;;5051372;28;20044;-60
2022/08/29 04:42:05;;;;;;;12.32;3.92;;;15.60;99.90;;;;;;5051220;28;20033;-60
2022/08/29 04:44:31;;;;;;;8.35;3.70;;;15.50;99.90;;;;;;5051182;28;20029;-61
2022/08/29 04:46:56;;;;;;;11.38;4.00;;;15.60;99.90;;;;;;5050959;28;20032;-61
2022/08/29 04:49:22;;;;;;;7.25;3.22;;;15.80;99.90;;;;;;5051438;28;20035;-60
2022/08/29 04:51:51;;;;;;;7.80;3.85;;;15.80;99.90;;;;;;5050803;28;20033;-60
2022/08/29 04:54:17;;;;;;;9.18;3.92;;;15.70;99.90;;;;;;5050893;28;20040;-60
2022/08/29 04:56:42;;;;;;;10.50;3.60;;;15.60;99.90;;;;;;5050876;28;20393;-60
2022/08/29 04:59:08;;;;;;;8.32;3.97;;;15.60;99.90;;;;;;5050935;28;20112;-59
2022/08/29 05:01:34;;;;;;;7.03;3.47;;;15.60;99.90;;;;;;5050944;28;20029;-59
2022/08/29 05:03:59;;;;;;;7.72;3.70;;;15.60;99.90;;;;;;5050871;28;20039;-59
2022/08/29 05:06:25;;;;;;;11.48;4.30;;;15.60;99.90;;;;;;5050859;28;20029;-59
2022/08/29 05:08:51;;;;;;;10.43;4.10;;;15.80;99.90;;;;;;5051122;28;20039;-59
2022/08/29 05:11:19;;;;;;;10.57;4.20;;;15.80;99.90;;;;;;5051156;28;20113;-65
2022/08/29 05:13:46;;;;;;;12.30;4.45;;;15.70;99.90;;;;;;5050642;28;20061;-59
2022/08/29 05:16:14;;;;;;;8.18;4.13;;;15.70;99.90;;;;;;5050611;28;20036;-59
2022/08/29 05:18:43;;;;;;;17.20;4.47;;;15.60;99.90;;;;;;5051018;28;20068;-59
2022/08/29 05:21:09;;;;;;;11.68;4.28;;;15.60;99.90;;;;;;5050604;28;20025;-59
2022/08/29 05:23:34;;;;;;;8.55;3.58;;;15.60;99.90;;;;;;5050748;28;20506;-61
2022/08/29 05:26:03;;;;;;;15.10;3.97;;;15.50;99.90;;;;;;5050537;28;20023;-60
2022/08/29 05:28:30;;;;;;;12.57;4.80;;;15.50;99.90;;;;;;5050887;28;20036;-60
2022/08/29 05:30:56;;;;;;;11.45;4.28;;;15.50;99.90;;;;;;5050853;28;20079;-61
2022/08/29 05:33:22;;;;;;;10.23;4.05;;;15.60;99.90;;;;;;5050370;28;20041;-58
2022/08/29 05:35:48;;;;;;;10.10;3.92;;;15.60;99.90;;;;;;5052054;28;20025;-58
2022/08/29 05:38:14;;;;;;;11.82;3.78;;;15.60;99.90;;;;;;5054789;28;20036;-59
2022/08/29 05:40:40;;;;;;;10.20;4.15;;;15.60;99.90;;;;;;5054336;28;20121;-60
2022/08/29 05:43:10;;;;;;;12.35;5.90;;;15.70;99.90;;;;;;5054623;28;20037;-60
2022/08/29 05:45:37;;;;;;;16.50;4.63;;;15.80;99.90;;;;;;5054441;28;20033;-60
2022/08/29 05:48:05;;;;;;;10.95;4.57;;;15.70;99.90;;;;;;5053165;28;20029;-60
2022/08/29 05:50:30;;;;;;;13.52;5.45;;;15.90;99.90;;;;;;5054463;28;20505;-60
2022/08/29 05:52:56;;;;;;;8.50;4.50;;;15.80;99.90;;;;;;5054352;28;20055;-60
2022/08/29 05:55:22;;;;;;;12.30;4.35;;;15.70;99.90;;;;;;5054148;28;20087;-60
2022/08/29 05:57:50;;;;;;;10.35;4.13;;;15.80;99.90;;;;;;5054317;28;20060;-60
2022/08/29 06:00:16;;;;;;;13.88;4.00;;;15.90;99.90;;;;;;5054174;28;20448;-61
2022/08/29 06:02:42;;;;;;;14.55;3.90;;;15.90;99.90;;;;;;5054021;28;20477;-61
2022/08/29 06:05:09;;;;;;;14.85;4.18;;;16.00;99.90;;;;;;5054138;28;20013;-61
2022/08/29 06:07:35;;;;;;;10.43;4.25;;;16.10;99.90;;;;;;5053954;28;20079;-61
2022/08/29 06:10:05;;;;;;;9.63;3.95;;;16.30;99.90;;;;;;5054096;28;20021;-60
2022/08/29 06:12:31;;;;;;;10.27;4.20;;;16.30;99.90;;;;;;5054110;28;20048;-60
2022/08/29 06:14:56;;;;;;;13.20;4.15;;;16.40;99.90;;;;;;5053636;28;20033;-60
2022/08/29 06:17:22;;;;;;;11.40;3.92;;;16.60;99.90;;;;;;5053899;28;20040;-60
2022/08/29 06:19:50;;;;;;;9.95;4.55;;;16.80;99.90;;;;;;5053904;28;20389;-60
2022/08/29 06:22:18;;;;;;;8.93;3.97;;;16.80;99.90;;;;;;5053482;28;20461;-60
2022/08/29 06:24:44;;;;;;;12.75;4.43;;;16.80;99.90;;;;;;5053619;28;20018;-60
2022/08/29 06:27:11;;;;;;;11.73;4.32;;;16.80;99.90;;;;;;5053910;28;20502;-61
2022/08/29 06:29:37;;;;;;;9.13;4.10;;;16.90;99.90;;;;;;5053594;28;20056;-61
2022/08/29 06:32:03;;;;;;;13.90;4.97;;;17.00;99.90;;;;;;5053737;28;20064;-59
2022/08/29 06:34:29;;;;;;;12.65;4.10;;;17.00;99.90;;;;;;5053679;28;20032;-59
2022/08/29 06:36:55;;;;;;;8.05;3.78;;;16.90;99.90;;;;;;5053345;28;20066;-59
2022/08/29 06:39:21;;;;;;;9.52;3.80;;;16.90;99.90;;;;;;5053564;28;20049;-61
2022/08/29 06:41:47;;;;;;;9.52;3.63;;;17.00;99.90;;;;;;5053396;28;20033;-61
2022/08/29 06:44:12;;;;;;;12.85;4.45;;;17.10;99.90;;;;;;5049999;28;20037;-59
2022/08/29 06:46:41;;;;;;;19.15;3.53;;;17.10;99.90;;;;;;5052314;28;20055;-58
2022/08/29 06:49:10;;;;;;;8.73;3.88;;;17.20;99.90;;;;;;5053531;28;20039;-58
2022/08/29 06:51:37;;;;;;;15.98;4.60;;;17.20;99.90;;;;;;5053205;28;20398;-59
2022/08/29 06:54:05;;;;;;;11.32;3.25;;;17.30;99.90;;;;;;5065155;28;20061;-59
2022/08/29 06:56:31;;;;;;;8.70;3.78;;;17.40;99.90;;;;;;5071408;28;20059;-59
2022/08/29 06:58:57;;;;;;;11.45;3.45;;;17.50;99.90;;;;;;5056761;28;20065;-60
2022/08/29 07:01:24;;;;;;;12.88;3.97;;;17.50;99.90;;;;;;5032923;28;20793;-60
2022/08/29 07:03:52;;;;;;;17.95;4.70;;;17.50;99.90;;;;;;5043811;28;20374;-60
2022/08/29 07:06:18;;;;;;;12.80;3.55;;;17.50;99.90;;;;;;5039464;28;20053;-61
2022/08/29 07:08:43;;;;;;;13.55;3.80;;;17.60;99.90;;;;;;5050742;28;20102;-62
2022/08/29 07:11:10;;;;;;;15.70;3.67;;;17.80;99.90;;;;;;5037093;28;20159;-61
2022/08/29 07:13:36;;;;;;;12.45;3.65;;;17.80;99.90;;;;;;5044355;28;20040;-62
2022/08/29 07:16:02;;;;;;;7.57;3.10;;;17.90;99.90;;;;;;5033685;28;20018;-62
2022/08/29 07:18:28;;;;;;;17.10;3.22;;;17.90;99.90;;;;;;5035561;28;20112;-62
2022/08/29 07:20:53;;;;;;;9.48;3.08;;;18.00;99.90;;;;;;5036631;28;20480;-59
2022/08/29 07:23:20;;;;;;;10.95;3.35;;;18.20;99.90;;;;;;5037635;28;20018;-61
2022/08/29 07:25:46;;;;;;;12.30;3.28;;;18.00;99.90;;;;;;5036950;28;20028;-61
2022/08/29 07:28:12;;;;;;;10.02;3.03;;;18.00;99.90;;;;;;5035247;28;20426;-60
2022/08/29 07:30:38;;;;;;;7.57;2.97;;;18.20;99.90;;;;;;5035252;28;20033;-61
2022/08/29 07:33:03;;;;;;;9.60;3.08;;;18.90;99.90;;;;;;5034074;28;20033;-60
2022/08/29 07:35:30;;;;;;;8.00;3.10;;;19.60;99.90;;;;;;5044605;28;20397;-60
2022/08/29 07:37:57;;;;;;;6.03;2.72;;;20.20;99.90;;;;;;5042339;28;20108;-61
2022/08/29 07:40:23;;;;;;;8.13;2.25;;;21.00;99.90;;;;;;5034677;28;20029;-61
2022/08/29 07:42:48;;;;;;;6.05;2.50;;;22.00;99.90;;;;;;5036980;28;20368;-63
2022/08/29 07:45:16;;;;;;;8.45;2.85;;;22.50;99.90;;;;;;5042472;28;20091;-63
2022/08/29 07:47:42;;;;;;;9.98;3.35;;;23.00;99.90;;;;;;5031051;28;20021;-62
2022/08/29 07:50:10;;;;;;;8.38;2.25;;;23.40;99.90;;;;;;5036314;28;20106;-62
2022/08/29 07:52:36;;;;;;;8.32;2.55;;;23.80;99.90;;;;;;5038452;28;20399;-62
2022/08/29 07:55:03;;;;;;;6.97;2.08;;;23.80;99.90;;;;;;5033564;28;20029;-62
2022/08/29 07:57:30;;;;;;;7.40;2.38;;;23.40;99.90;;;;;;5008050;23;20066;-60
2022/08/29 07:59:55;;;;;;;8.13;2.78;;;22.90;99.90;;;;;;4986467;28;20476;-60
2022/08/29 08:02:21;;;;;;;6.00;2.30;;;22.50;99.90;;;;;;4990163;28;20033;-62
2022/08/29 08:04:46;;;;;;;7.75;2.15;;;21.80;99.90;;;;;;4988005;28;20030;-60
2022/08/29 08:07:13;;;;;;;16.73;3.00;;;21.80;99.90;;;;;;4989249;28;20034;-60
2022/08/29 08:09:38;;;;;;;8.75;2.25;;;22.40;99.90;;;;;;4990042;28;20499;-59
2022/08/29 08:12:05;;;;;;;8.90;2.40;;;22.50;99.90;;;;;;4984186;28;20026;-60
2022/08/29 08:14:32;;;;;;;7.30;2.05;;;23.50;99.90;;;;;;4989346;28;20443;-61
2022/08/29 08:16:58;;;;;;;11.93;2.60;;;23.90;99.90;;;;;;4989653;28;20539;-62
2022/08/29 08:19:24;;;;;;;8.00;2.40;;;24.20;99.90;;;;;;4985421;28;20038;-61
2022/08/29 08:21:49;;;;;;;11.40;2.10;;;24.30;99.90;;;;;;4982036;28;20038;-62
2022/08/29 08:24:15;;;;;;;7.57;2.30;;;24.20;99.90;;;;;;4988014;28;20030;-62
2022/08/29 08:26:41;;;;;;;4.72;2.00;;;24.80;98.80;;;;;;4985338;28;20026;-63
2022/08/29 08:29:06;;;;;;;6.60;2.42;;;24.90;98.00;;;;;;4983372;28;20030;-62
2022/08/29 08:31:32;;;;;;;7.97;2.40;;;25.10;97.40;;;;;;4986935;28;20044;-61
2022/08/29 08:33:58;;;;;;;6.47;2.35;;;25.20;96.40;;;;;;4987498;28;20101;-63
2022/08/29 08:36:29;;;;;;;3.72;2.22;;;25.60;95.60;;;;;;4981592;28;20487;-61
2022/08/29 08:38:56;;;;;;;4.70;2.40;;;25.80;94.60;;;;;;4982507;28;20030;-62
2022/08/29 08:41:35;;;;;;;7.43;2.65;;;25.80;94.00;;;;;;4986388;28;20034;-61
2022/08/29 08:44:31;;;;;;;5.32;2.45;;;25.40;94.00;;;;;;4985173;28;20847;-63
2022/08/29 08:47:00;;;;;;;7.97;2.67;;;25.60;94.30;;;;;;4986254;28;20064;-62
2022/08/29 08:49:48;;;;;;;5.72;2.97;;;25.70;93.50;;;;;;4985538;28;20026;-62
2022/08/29 08:52:29;;;;;;;7.65;3.00;;;25.70;92.80;;;;;;4982172;28;20117;-62
2022/08/29 08:55:03;;;;;;;7.68;2.90;;;25.30;92.40;;;;;;4984558;28;20081;-65
2022/08/29 08:57:38;;;;;;;5.65;2.70;;;24.80;93.00;;;;;;4983826;28;20157;-50
2022/08/29 09:00:06;;;;;;;9.77;3.10;;;24.80;93.20;;;;;;4979547;28;20109;-51
2022/08/29 09:02:33;;;;;;;7.50;3.10;;;25.20;92.50;;;;;;4984382;28;20395;-50
2022/08/29 09:05:35;;;;;;;6.07;2.97;;;25.70;91.10;;;;;;4983479;28;20426;-49
2022/08/29 09:08:32;;;;;;;9.55;3.42;;;26.10;90.00;;;;;;4958085;28;20056;-50
2022/08/29 09:11:03;;;;;;;6.28;3.20;;;26.00;89.90;;;;;;4978925;28;20740;-50
2022/08/29 09:13:50;;;;;;;6.70;2.75;;;26.20;89.30;;;;;;4984523;28;20038;-50
2022/08/29 09:16:30;;;;;;;7.20;3.03;;;26.00;88.40;;;;;;4982400;28;20039;-50
2022/08/29 09:19:02;;;;;;;4.13;2.70;;;25.90;88.60;;;;;;4978140;28;20030;-49
2022/08/29 09:21:32;;;;;;;5.68;3.00;;;26.00;88.50;;;;;;4982144;28;20088;-50
2022/08/29 09:23:58;;;;;;;13.52;3.50;;;26.00;89.10;;;;;;4983621;28;20026;-50
2022/08/29 09:26:26;;;;;;;5.47;2.60;;;26.50;87.50;;;;;;4979862;28;20026;-50
2022/08/29 09:28:52;;;;;;;5.00;2.95;;;27.00;84.10;;;;;;4981609;28;20524;-51
2022/08/29 09:31:22;;;;;;;5.53;2.90;;;27.40;82.80;;;;;;4983200;28;20527;-50
2022/08/29 09:33:52;;;;;;;6.35;2.85;;;27.10;82.40;;;;;;4981365;28;20117;-49
2022/08/29 09:36:33;;;;;;;6.25;3.00;;;27.10;83.30;;;;;;4988671;28;20546;-50
2022/08/29 09:39:25;;;;;;;11.02;3.25;;;26.60;83.10;;;;;;4985481;28;20041;-50
2022/08/29 09:41:53;;;;;;;5.60;2.92;;;26.40;83.20;;;;;;4983394;28;20046;-51
2022/08/29 09:44:32;;;;;;;9.63;3.22;;;26.80;83.00;;;;;;4982830;28;20088;-51
2022/08/29 09:47:21;;;;;;;9.00;3.30;;;27.30;80.70;;;;;;4981607;28;20027;-51
2022/08/29 09:50:09;;;;;;;7.65;3.47;;;27.20;79.40;;;;;;4988461;28;20113;-51
2022/08/29 09:52:37;;;;;;;5.95;3.17;;;27.40;78.90;;;;;;4978922;28;20074;-51
2022/08/29 09:55:38;;;;;;;8.50;3.47;;;27.50;77.80;;;;;;4982544;28;20052;-51
2022/08/29 09:58:26;;;;;;;5.10;3.33;;;27.60;78.10;;;;;;4979478;28;20034;-51
2022/08/29 10:01:01;;;;;;;5.93;2.80;;;27.60;78.50;;;;;;4985008;28;20076;-51
2022/08/29 10:03:32;;;;;;;6.13;3.88;;;27.40;77.10;;;;;;4981170;28;20031;-50
2022/08/29 10:06:13;;;;;;;7.57;3.38;;;27.10;78.30;;;;;;4981865;28;20062;-50
2022/08/29 10:08:40;;;;;;;6.72;3.10;;;27.60;76.90;;;;;;4983037;28;20522;-52
2022/08/29 10:11:15;;;;;;;6.53;2.90;;;28.20;75.50;;;;;;4985194;28;20172;-52
2022/08/29 10:14:03;;;;;;;5.78;3.20;;;28.20;75.20;;;;;;4983858;28;20041;-52
2022/08/29 10:16:55;;;;;;;11.15;3.50;;;28.60;73.20;;;;;;4986883;28;20109;-51
2022/08/29 10:19:24;;;;;;;;;;;28.20;74.10;;;;;;4985262;28;20061;-51
2022/08/29 10:22:35;;;;;;;7.53;3.55;;;28.60;73.20;;;;;;4984422;28;20291;-51
2022/08/29 10:25:23;;;;;;;4.93;3.50;;;28.10;72.90;;;;;;4947403;28;20500;-51
2022/08/29 10:27:54;;;;;;;7.38;3.00;;;27.50;74.80;;;;;;4946244;29;20035;-51
2022/08/29 10:30:31;;;;;;;8.52;3.38;;;27.70;75.40;;;;;;4971449;28;20050;-52
2022/08/29 10:33:12;;;;;;;8.27;3.00;;;28.30;73.50;;;;;;4984340;28;20500;-51
2022/08/29 10:35:59;;;;;;;7.22;3.40;;;28.60;72.60;;;;;;4984174;28;20054;-51
2022/08/29 10:38:43;;;;;;;8.80;3.50;;;28.70;71.70;;;;;;4990601;28;20058;-51
2022/08/29 10:41:26;;;;;;;10.45;3.58;;;29.10;72.20;;;;;;4990393;28;20058;-51
2022/08/29 10:44:26;;;;;;;4.60;3.08;;;29.10;70.10;;;;;;4987659;28;20141;-51
2022/08/29 10:47:25;;;;;;;6.22;3.40;;;29.20;69.80;;;;;;4983629;28;20096;-51
2022/08/29 10:50:02;;;;;;;6.10;3.15;;;27.80;72.90;;;;;;4981891;28;20033;-50
2022/08/29 10:52:33;;;;;;;6.43;3.20;;;28.00;73.30;;;;;;4984029;28;20045;-51
2022/08/29 10:54:59;;;;;;;7.53;3.78;;;27.40;73.80;;;;;;4986808;28;20034;-51
2022/08/29 10:57:43;;;;;;;7.03;3.10;;;27.80;73.00;;;;;;4986978;28;20069;-51
2022/08/29 11:00:17;;;;;;;16.15;3.20;;;27.90;73.50;;;;;;4985826;28;20030;-51
2022/08/29 11:03:02;;;;;;;6.70;2.90;;;28.20;71.80;;;;;;4985073;28;20034;-52
2022/08/29 11:05:34;;;;;;;6.00;3.03;;;28.50;72.20;;;;;;4983134;28;20027;-51
2022/08/29 11:08:02;;;;;;;6.47;3.28;;;28.80;70.70;;;;;;4987654;28;20034;-51
2022/08/29 11:10:39;;;;;;;8.80;3.47;;;28.80;69.70;;;;;;4987203;28;20065;-51
2022/08/29 11:13:16;;;;;;;6.82;3.40;;;29.20;69.70;;;;;;4982922;28;20505;-52
2022/08/29 11:15:55;;;;;;;7.97;3.40;;;29.70;68.20;;;;;;4986114;28;20026;-52
2022/08/29 11:18:53;;;;;;;6.38;3.10;;;29.50;68.60;;;;;;4981336;28;20052;-52
2022/08/29 11:21:41;;;;;;;7.45;3.33;;;29.80;67.20;;;;;;4970221;28;20325;-51
2022/08/29 11:24:09;;;;;;;5.60;3.50;;;30.00;66.20;;;;;;4977807;28;20037;-51
2022/08/29 11:26:44;;;;;;;5.28;3.15;;;30.20;65.50;;;;;;4975329;28;20037;-52
2022/08/29 11:29:34;;;;;;;6.60;3.47;;;30.10;65.80;;;;;;4979399;28;20057;-51
2022/08/29 11:32:17;;;;;;;6.40;3.40;;;30.40;65.60;;;;;;4977804;28;20518;-51
2022/08/29 11:34:55;;;;;;;6.45;3.22;;;29.80;65.70;;;;;;4983106;28;20049;-51
2022/08/29 11:38:02;;;;;;;8.15;2.95;;;28.90;68.10;;;;;;4981616;28;20030;-51
2022/08/29 11:41:04;;;;;;;8.82;3.53;;;29.70;66.00;;;;;;4939660;28;20031;-51
2022/08/29 11:43:37;;;;;;;5.75;3.20;;;29.90;64.90;;;;;;4937213;28;20503;-51
2022/08/29 11:46:06;;;;;;;8.00;3.00;;;30.30;64.10;;;;;;4972751;28;20088;-51
2022/08/29 11:48:41;;;;;;;7.22;3.28;;;30.30;64.20;;;;;;4976120;28;20030;-51
2022/08/29 11:51:28;;;;;;;6.10;3.13;;;30.60;62.50;;;;;;4980335;28;20030;-52
2022/08/29 11:53:54;;;;;;;8.90;3.17;;;30.80;62.70;;;;;;4974736;28;20038;-49
2022/08/29 11:56:27;;;;;;;8.73;2.90;;;31.20;61.00;;;;;;4982652;28;20445;-53
2022/08/29 11:58:56;;;;;;;7.05;3.05;;;31.20;60.40;;;;;;4979888;28;20593;-50
2022/08/29 12:01:24;;;;;;;6.50;2.80;;;31.30;60.90;;;;;;4980821;28;20034;-49
2022/08/29 12:03:57;;;;;;;5.50;2.75;;;31.20;59.60;;;;;;4982769;28;20037;-51
2022/08/29 12:06:28;;;;;;;5.70;2.83;;;30.70;62.20;;;;;;4980617;28;20019;-52
2022/08/29 12:09:03;;;;;;;9.23;3.00;;;30.30;61.10;;;;;;4981320;28;20034;-51
2022/08/29 12:12:03;;;;;;;6.03;2.80;;;30.10;63.30;;;;;;4978657;28;20289;-51
2022/08/29 12:14:43;;;;;;;5.00;2.65;;;30.50;61.00;;;;;;4978445;28;20042;-52
2022/08/29 12:17:18;;;;;;;4.75;2.83;;;30.00;63.50;;;;;;4977146;28;20594;-53
2022/08/29 12:19:56;;;;;;;7.57;3.28;;;30.50;61.50;;;;;;4983031;28;20086;-52
2022/08/29 12:22:55;;;;;;;3.97;2.80;;;31.20;59.60;;;;;;4978343;28;20034;-52
2022/08/29 12:25:27;;;;;;;11.30;2.53;;;31.50;58.60;;;;;;4977593;28;20026;-52
2022/08/29 12:28:00;;;;;;;13.63;2.95;;;31.10;59.10;;;;;;4979759;28;20034;-52
2022/08/29 12:30:32;;;;;;;7.85;2.92;;;31.10;58.80;;;;;;4974686;28;20557;-52
2022/08/29 12:33:21;;;;;;;6.47;2.93;;;31.20;59.90;;;;;;4970318;28;20109;-51
2022/08/29 12:36:06;;;;;;;3.70;2.65;;;32.00;58.00;;;;;;4977573;28;20356;-52
2022/08/29 12:38:50;;;;;;;4.82;2.72;;;31.90;57.50;;;;;;4983270;28;20042;-52
2022/08/29 12:41:45;;;;;;;6.03;2.63;;;31.10;58.20;;;;;;4979550;28;20037;-52
2022/08/29 12:44:15;;;;;;;4.60;2.60;;;30.80;58.90;;;;;;4984397;28;20061;-52
2022/08/29 12:46:44;;;;;;;7.70;3.17;;;30.40;59.50;;;;;;4984497;28;20487;-51
2022/08/29 12:49:19;;;;;;;9.13;2.60;;;30.00;59.60;;;;;;4978004;28;20041;-52
2022/08/29 12:51:53;;;;;;;4.25;2.45;;;30.80;58.80;;;;;;4983244;28;20057;-51
2022/08/29 12:54:30;;;;;;;5.80;2.65;;;31.30;58.30;;;;;;4982217;28;20041;-53
2022/08/29 12:56:57;;;;;;;4.60;2.80;;;31.20;57.60;;;;;;4982217;28;20064;-52
2022/08/29 12:59:26;;;;;;;5.18;2.88;;;30.60;58.70;;;;;;4983778;28;20054;-52
2022/08/29 13:01:53;;;;;;;4.28;2.80;;;31.30;57.70;;;;;;4982515;28;20522;-51
2022/08/29 13:04:22;;;;;;;7.55;2.88;;;31.50;57.40;;;;;;4984938;28;20041;-51
2022/08/29 13:06:50;;;;;;;4.88;2.78;;;31.50;56.90;;;;;;4980506;28;20038;-53